Time;durP1;ratioP1;P1;durP2;ratioP2;P2;SDS_P1;SDS_P2;PMS_P1;PMS_P2;Temp;Humidity;BMP_temperature;BMP_pressure;BME280_temperature;BME280_humidity;BME280_pressure;Samples;Min_cycle;Max_cycle;Signal;HPM_P1;HPM_P2
2022/03/05 00:02:13;;;;;;;;;50.50;39.00;;;;;10.92;68.11;101285.03;5012503;28;45560;-82
2022/03/05 00:04:39;;;;;;;;;47.00;39.75;;;;;9.58;68.09;101051.63;5024003;28;46178;-86
2022/03/05 00:07:04;;;;;;;;;51.75;40.50;;;;;9.90;68.12;101091.47;5019422;28;45420;-83
2022/03/05 00:09:30;;;;;;;;;50.00;40.50;;;;;10.34;67.85;101174.78;5024386;28;46262;-83
2022/03/05 00:11:55;;;;;;;;;54.00;41.00;;;;;10.65;68.24;101237.44;5027810;28;45700;-84
2022/03/05 00:14:20;;;;;;;;;50.00;39.00;;;;;9.71;67.94;101074.06;5025345;28;46461;-82
2022/03/05 00:16:46;;;;;;;;;53.25;43.00;;;;;10.96;68.12;101280.78;5008722;28;45541;-82
2022/03/05 00:19:11;;;;;;;;;56.00;45.00;;;;;10.63;68.06;101212.81;5025828;28;45817;-82
2022/03/05 00:21:36;;;;;;;;;57.25;43.00;;;;;9.79;68.13;101076.16;5025225;28;45649;-83
2022/03/05 00:24:02;;;;;;;;;50.50;41.25;;;;;10.06;68.26;101123.72;5026420;28;46209;-83
2022/03/05 00:26:27;;;;;;;;;54.50;41.00;;;;;9.88;68.05;101087.88;5007888;28;46022;-83
2022/03/05 00:28:53;;;;;;;;;51.75;40.00;;;;;9.97;68.00;101101.41;5025185;28;45491;-82
2022/03/05 00:31:18;;;;;;;;;56.50;43.50;;;;;10.29;68.11;101164.09;5028785;28;45719;-86
2022/03/05 00:33:43;;;;;;;;;55.50;42.75;;;;;10.31;67.99;101166.81;5027968;28;46522;-82
2022/03/05 00:36:09;;;;;;;;;56.75;44.50;;;;;10.76;68.13;101244.06;5024806;28;45444;-81
2022/03/05 00:38:34;;;;;;;;;54.00;40.75;;;;;9.91;68.20;101106.41;5033719;28;45723;-82
2022/03/05 00:40:59;;;;;;;;;53.75;43.00;;;;;9.60;68.28;101049.03;5026027;28;45738;-82
2022/03/05 00:43:25;;;;;;;;;51.50;42.50;;;;;9.17;68.40;100965.88;5027135;28;46044;-82
2022/03/05 00:45:50;;;;;;;;;54.00;40.00;;;;;10.59;68.41;101214.44;5026144;28;45473;-82
2022/03/05 00:48:15;;;;;;;;;49.00;39.00;;;;;10.41;68.09;101204.88;5027897;28;45597;-82
2022/03/05 00:50:41;;;;;;;;;57.00;43.00;;;;;10.89;68.39;101263.88;5023845;28;45527;-82
2022/03/05 00:53:06;;;;;;;;;48.25;39.50;;;;;10.88;68.52;101269.94;5026433;28;46531;-81
2022/03/05 00:55:32;;;;;;;;;48.50;39.50;;;;;10.90;68.31;101278.81;5023589;28;45360;-83
2022/03/05 00:57:57;;;;;;;;;54.25;42.75;;;;;10.54;68.51;101200.22;5024240;28;45479;-82
2022/03/05 01:00:23;;;;;;;;;53.75;42.25;;;;;10.51;68.43;101193.91;5026200;28;45631;-82
2022/03/05 01:02:48;;;;;;;;;53.75;41.50;;;;;10.47;68.75;101185.00;5004959;28;48232;-87
2022/03/05 01:05:14;;;;;;;;;55.75;42.75;;;;;10.47;68.35;101189.38;5033879;28;45625;-86
2022/03/05 01:07:39;;;;;;;;;54.50;42.00;;;;;10.14;68.62;101129.25;5034455;28;45481;-87
2022/03/05 01:10:06;;;;;;;;;55.00;41.50;;;;;10.04;68.44;101111.31;5016302;28;45345;-87
2022/03/05 01:12:31;;;;;;;;;55.75;44.00;;;;;9.90;68.57;101083.56;5034014;28;45596;-87
2022/03/05 01:14:57;;;;;;;;;49.75;39.75;;;;;10.42;68.50;101169.88;5028779;28;45464;-86
2022/03/05 01:17:23;;;;;;;;;55.50;45.25;;;;;10.05;68.61;101115.78;5013659;28;45493;-86
2022/03/05 01:19:48;;;;;;;;;51.50;40.75;;;;;10.51;68.47;101196.56;5014158;28;45315;-87
2022/03/05 01:22:14;;;;;;;;;53.00;42.50;;;;;10.26;68.63;101157.84;5014185;28;45585;-86
2022/03/05 01:24:39;;;;;;;;;59.00;45.00;;;;;10.43;68.67;101177.81;5013765;28;45452;-87
2022/03/05 01:27:04;;;;;;;;;54.00;43.50;;;;;10.39;68.48;101175.88;5014339;28;45274;-86
2022/03/05 01:29:30;;;;;;;;;57.75;43.00;;;;;10.59;68.73;101214.44;5014040;28;45605;-85
2022/03/05 01:31:56;;;;;;;;;55.00;43.50;;;;;10.78;68.54;101245.00;5014123;28;46102;-87
2022/03/05 01:34:21;;;;;;;;;58.25;45.00;;;;;10.43;68.56;101179.56;4995824;28;46014;-85
2022/03/05 01:36:46;;;;;;;;;50.00;40.75;;;;;10.78;68.64;101245.00;5022252;28;45525;-86
2022/03/05 01:39:12;;;;;;;;;55.25;44.00;;;;;10.89;68.58;101262.97;5032023;28;45317;-85
2022/03/05 01:41:41;;;;;;;;;53.25;41.75;;;;;10.34;68.68;101166.91;5032288;28;46911;-86
2022/03/05 01:44:06;;;;;;;;;56.25;42.75;;;;;10.18;68.60;101139.06;5033608;28;45375;-86
2022/03/05 01:46:38;;;;;;;;;56.50;44.75;;;;;10.60;68.62;101202.19;5033832;28;45387;-86
2022/03/05 01:49:06;;;;;;;;;52.50;41.75;;;;;10.60;69.03;101215.34;5033817;28;45352;-86
2022/03/05 01:51:31;;;;;;;;;58.50;44.25;;;;;9.88;68.75;101080.91;5033284;28;46390;-86
2022/03/05 01:53:57;;;;;;;;;49.75;41.00;;;;;10.73;68.79;101250.91;5033329;28;45450;-87
2022/03/05 01:56:25;;;;;;;;;53.25;42.50;;;;;10.92;68.82;101263.09;5034021;28;45475;-87
2022/03/05 01:58:51;;;;;;;;;57.00;45.25;;;;;10.23;68.63;101131.38;5033701;28;45481;-87
2022/03/05 02:01:21;;;;;;;;;50.25;40.00;;;;;10.22;68.74;101135.75;5035848;28;46695;-85
2022/03/05 02:03:46;;;;;;;;;54.00;43.00;;;;;10.69;68.61;101213.09;5032196;28;46045;-86
2022/03/05 02:06:11;;;;;;;;;55.33;45.00;;;;;10.71;68.72;101226.28;5033646;28;45592;-85
2022/03/05 02:08:37;;;;;;;;;56.25;44.75;;;;;10.55;68.83;101185.34;5033680;28;45488;-86
2022/03/05 02:11:02;;;;;;;;;54.25;44.00;;;;;9.92;68.65;101076.69;5032937;28;45506;-86
2022/03/05 02:13:28;;;;;;;;;51.67;43.00;;;;;10.88;68.65;101248.00;5035531;28;45426;-86
2022/03/05 02:15:55;;;;;;;;;55.50;44.25;;;;;10.85;68.81;101240.91;5037074;28;45385;-86
2022/03/05 02:18:20;;;;;;;;;54.25;42.00;;;;;9.82;68.63;101057.91;5037128;28;45482;-86
2022/03/05 02:20:45;;;;;;;;;52.75;43.00;;;;;10.22;68.61;101134.84;5036898;28;45412;-86
2022/03/05 02:23:11;;;;;;;;;53.75;44.50;;;;;10.66;68.57;101212.06;5036674;28;45295;-85
2022/03/05 02:25:36;;;;;;;;;55.50;43.50;;;;;10.61;68.58;101208.34;5036422;28;45297;-86
2022/03/05 02:28:02;;;;;;;;;55.67;43.33;;;;;10.39;68.41;101185.50;5037134;28;45531;-86
2022/03/05 02:30:27;;;;;;;;;54.75;43.50;;;;;10.45;68.64;101177.91;5036585;28;45822;-86
2022/03/05 02:32:53;;;;;;;;;56.75;45.25;;;;;10.61;68.75;101208.34;5037487;28;45492;-86
2022/03/05 02:35:18;;;;;;;;;56.50;44.75;;;;;10.46;68.88;101187.56;5030480;28;45448;-85
2022/03/05 02:37:43;;;;;;;;;50.75;42.25;;;;;10.53;68.73;101200.13;5016711;28;45574;-86
2022/03/05 02:40:09;;;;;;;;;53.25;42.00;;;;;10.27;68.58;101149.13;5031411;28;46433;-87
2022/03/05 02:42:35;;;;;;;;;55.50;45.00;;;;;10.68;68.81;101228.78;5036108;28;45261;-86
2022/03/05 02:45:00;;;;;;;;;54.75;43.25;;;;;10.80;68.91;101251.25;5036320;28;45456;-86
2022/03/05 02:47:26;;;;;;;;;55.25;44.25;;;;;10.37;69.07;101176.69;5036758;28;45348;-86
2022/03/05 02:49:51;;;;;;;;;54.25;42.25;;;;;10.63;68.76;101222.44;5036600;28;46666;-86
2022/03/05 02:52:17;;;;;;;;;58.00;43.00;;;;;10.01;68.82;101113.84;5035860;28;45578;-83
2022/03/05 02:54:42;;;;;;;;;57.50;45.25;;;;;10.45;69.20;101196.31;5035964;28;45365;-86
2022/03/05 02:57:07;;;;;;;;;55.00;44.00;;;;;10.54;68.89;101215.06;5036372;28;45349;-87
2022/03/05 02:59:32;;;;;;;;;58.67;45.33;;;;;10.68;69.15;101237.56;5036014;28;45729;-86
2022/03/05 03:01:58;;;;;;;;;51.00;40.33;;;;;10.67;69.06;101245.41;5036122;28;45315;-86
2022/03/05 03:04:23;;;;;;;;;57.25;44.25;;;;;10.45;69.22;101201.56;5036604;28;45368;-85
2022/03/05 03:06:50;;;;;;;;;56.50;43.75;;;;;10.50;68.99;101223.66;5036229;28;45385;-86
2022/03/05 03:09:15;;;;;;;;;57.75;42.50;;;;;10.65;69.22;101234.81;5017858;28;46183;-87
2022/03/05 03:11:41;;;;;;;;;55.00;43.75;;;;;9.34;69.29;101001.59;5036400;28;45421;-87
2022/03/05 03:14:06;;;;;;;;;60.75;44.00;;;;;10.35;69.30;101195.00;5036421;28;45349;-86
2022/03/05 03:16:32;;;;;;;;;61.00;46.25;;;;;10.02;69.40;101127.03;5036052;28;45420;-86
2022/03/05 03:18:57;;;;;;;;;56.50;43.25;;;;;10.63;69.19;101233.84;5036276;28;46565;-84
2022/03/05 03:21:23;;;;;;;;;57.25;44.00;;;;;10.46;69.31;101205.97;5035977;28;45364;-84
2022/03/05 03:23:48;;;;;;;;;56.00;45.25;;;;;10.59;69.61;101227.59;5036176;28;45487;-86
2022/03/05 03:26:13;;;;;;;;;59.33;43.67;;;;;10.30;69.56;101183.41;5035897;28;45413;-86
2022/03/05 03:28:39;;;;;;;;;60.00;45.50;;;;;9.52;69.39;101044.38;5017995;28;47050;-87
2022/03/05 03:31:04;;;;;;;;;54.67;44.00;;;;;10.51;69.56;101210.59;5035921;28;45419;-86
2022/03/05 03:33:29;;;;;;;;;56.25;43.25;;;;;10.18;69.35;101159.19;5013047;28;45368;-82
2022/03/05 03:35:55;;;;;;;;;55.50;44.00;;;;;10.02;69.40;101127.03;5033715;28;45553;-81
2022/03/05 03:38:20;;;;;;;;;59.00;45.50;;;;;9.97;69.51;101122.41;5034455;28;46428;-83
2022/03/05 03:40:46;;;;;;;;;58.00;45.50;;;;;10.17;69.56;101160.03;5035564;28;45306;-85
2022/03/05 03:43:11;;;;;;;;;60.00;45.00;;;;;10.38;69.73;101191.59;5031798;28;45742;-87
2022/03/05 03:45:37;;;;;;;;;58.25;43.25;;;;;10.50;69.73;101211.41;5024750;28;45324;-87
2022/03/05 03:48:03;;;;;;;;;59.25;43.00;;;;;10.35;69.70;101196.75;5016097;28;46574;-87
2022/03/05 03:50:28;;;;;;;;;56.00;44.50;;;;;10.53;69.83;101221.16;4994641;28;45420;-87
2022/03/05 03:52:54;;;;;;;;;58.67;43.67;;;;;10.58;69.73;101223.13;4996506;28;45489;-87
2022/03/05 03:55:21;;;;;;;;;56.00;44.25;;;;;9.94;69.92;101117.91;4994915;28;45504;-86
2022/03/05 03:57:47;;;;;;;;;53.00;41.25;;;;;10.70;69.90;101238.53;4996133;28;46520;-87
2022/03/05 04:00:15;;;;;;;;;59.00;45.50;;;;;9.69;69.85;101059.94;4996006;28;45298;-84
2022/03/05 04:02:41;;;;;;;;;53.25;44.25;;;;;10.16;70.09;101146.00;4996045;28;45675;-87
2022/03/05 04:05:07;;;;;;;;;56.50;43.75;;;;;10.78;69.78;101244.09;4996090;28;45618;-85
2022/03/05 04:10:17;;;;;;;;;48.25;39.50;;;;;10.14;69.38;101129.25;4995296;28;45294;-86
2022/03/05 04:12:43;;;;;;;;;50.25;41.75;;;;;10.76;69.50;101243.16;4996081;28;45608;-87
2022/03/05 04:15:09;;;;;;;;;51.50;38.25;;;;;10.32;69.24;101171.22;4996229;28;45395;-87
2022/03/05 04:17:34;;;;;;;;;47.25;40.25;;;;;9.57;69.21;101047.19;4994939;28;48187;-87
2022/03/05 04:20:00;;;;;;;;;45.33;39.00;;;;;10.69;69.42;101249.91;4995573;28;45632;-85
2022/03/05 04:22:25;;;;;;;;;47.33;40.67;;;;;10.27;69.24;101165.78;4995247;28;45364;-87
2022/03/05 04:24:50;;;;;;;;;45.50;38.00;;;;;10.51;69.52;101212.31;4994918;28;45551;-86
2022/03/05 04:27:16;;;;;;;;;45.25;36.75;;;;;10.64;69.24;101247.88;4994993;28;45484;-85
2022/03/05 04:29:42;;;;;;;;;51.50;40.75;;;;;10.46;69.26;101213.84;4995537;28;45429;-86
2022/03/05 04:32:08;;;;;;;;;50.75;41.75;;;;;10.58;69.20;101241.53;4995383;28;45342;-87
2022/03/05 04:34:34;;;;;;;;;51.50;39.25;;;;;10.24;69.14;101186.66;4994767;28;45417;-87
2022/03/05 04:37:00;;;;;;;;;45.25;38.75;;;;;10.54;69.21;101238.72;4994670;28;46498;-87
2022/03/05 04:39:25;;;;;;;;;40.75;36.00;;;;;10.07;69.29;101170.13;4995526;28;45416;-86
2022/03/05 04:41:50;;;;;;;;;44.00;39.00;;;;;10.08;69.13;101178.91;4995825;28;45451;-87
2022/03/05 04:44:16;;;;;;;;;50.25;41.00;;;;;10.45;69.34;101239.25;4995738;28;45678;-88
2022/03/05 04:46:41;;;;;;;;;45.00;39.50;;;;;9.91;69.22;101143.16;4995982;28;45566;-86
2022/03/05 04:49:08;;;;;;;;;44.50;38.00;;;;;10.01;69.52;101171.63;4995959;28;45318;-87
2022/03/05 04:51:33;;;;;;;;;48.25;38.00;;;;;10.22;69.32;101214.56;5012066;28;45474;-87
2022/03/05 04:53:59;;;;;;;;;48.50;39.75;;;;;10.04;69.58;101184.84;5034665;28;45623;-88
2022/03/05 04:56:24;;;;;;;;;52.50;42.00;;;;;9.88;69.45;101169.28;5034812;28;45381;-86
2022/03/05 04:58:50;;;;;;;;;47.50;36.75;;;;;9.38;69.21;101076.97;5016729;28;45905;-87
2022/03/05 05:01:15;;;;;;;;;48.75;39.75;;;;;10.11;69.31;101205.31;5012904;28;45464;-86
2022/03/05 05:03:41;;;;;;;;;47.25;38.75;;;;;9.87;69.30;101167.47;5025919;28;45675;-87
2022/03/05 05:06:06;;;;;;;;;44.25;39.25;;;;;9.86;69.09;101168.31;5034593;28;46562;-86
2022/03/05 05:08:32;;;;;;;;;46.50;39.50;;;;;9.20;69.13;101048.19;5034296;28;45281;-87
2022/03/05 05:10:57;;;;;;;;;47.75;39.75;;;;;10.26;69.06;101231.38;5016741;28;45696;-86
2022/03/05 05:13:23;;;;;;;;;49.00;41.25;;;;;10.23;69.12;101229.47;5034231;28;45470;-87
2022/03/05 05:15:48;;;;;;;;;48.00;40.50;;;;;9.96;69.02;101183.66;5034058;28;45244;-87
2022/03/05 05:18:14;;;;;;;;;46.00;38.33;;;;;10.36;69.13;101253.72;5034057;28;45392;-86
2022/03/05 05:20:39;;;;;;;;;50.00;40.50;;;;;10.32;69.42;101253.56;5034015;28;45253;-85
2022/03/05 05:23:05;;;;;;;;;45.50;38.00;;;;;9.80;69.18;101167.22;5034300;28;45455;-87
2022/03/05 05:25:30;;;;;;;;;48.00;37.25;;;;;9.72;69.28;101151.94;5033596;28;45388;-85
2022/03/05 05:27:55;;;;;;;;;48.25;37.00;;;;;9.95;69.32;101203.75;5034262;28;45423;-87
2022/03/05 05:30:21;;;;;;;;;46.75;39.50;;;;;10.08;69.58;101232.34;5034208;28;45436;-86
2022/03/05 05:32:46;;;;;;;;;52.75;41.25;;;;;9.96;69.63;101215.16;5033770;28;45277;-86
2022/03/05 05:35:12;;;;;;;;;53.50;42.25;;;;;9.92;69.28;101213.22;5033425;28;45442;-83
2022/03/05 05:37:37;;;;;;;;;50.00;40.25;;;;;9.59;69.39;101155.75;5033723;28;45393;-85
2022/03/05 05:40:03;;;;;;;;;49.75;40.25;;;;;10.28;69.53;101275.28;5015654;28;45377;-84
2022/03/05 05:42:29;;;;;;;;;49.25;40.00;;;;;10.28;69.40;101275.28;5033658;28;45461;-84
2022/03/05 05:44:54;;;;;;;;;51.50;42.00;;;;;9.91;69.54;101212.31;5033594;28;46344;-84
2022/03/05 05:47:20;;;;;;;;;52.00;43.00;;;;;10.04;69.35;101235.66;5033002;28;45487;-82
2022/03/05 05:49:45;;;;;;;;;49.25;40.00;;;;;10.29;69.91;101274.44;5037083;28;45435;-83
2022/03/05 05:52:10;;;;;;;;;59.33;44.00;;;;;10.30;69.39;101281.50;5036797;28;45536;-84
2022/03/05 05:54:36;;;;;;;;;54.75;42.25;;;;;10.29;69.53;101278.78;5036751;28;45349;-87
2022/03/05 05:57:02;;;;;;;;;54.75;42.00;;;;;9.73;69.59;101187.84;5037249;28;45372;-85
2022/03/05 05:59:27;;;;;;;;;59.00;45.25;;;;;9.62;69.51;101170.75;5036032;28;45384;-87
2022/03/05 06:01:52;;;;;;;;;51.25;42.00;;;;;10.23;69.83;101279.38;5036928;28;45270;-85
2022/03/05 06:04:18;;;;;;;;;55.50;45.00;;;;;9.43;70.01;101143.66;5036775;28;46447;-86
2022/03/05 06:06:43;;;;;;;;;54.00;44.00;;;;;10.21;70.13;101286.31;5018685;28;46086;-87
2022/03/05 06:09:08;;;;;;;;;52.00;39.25;;;;;9.69;69.66;101199.94;5036318;28;45285;-83
2022/03/05 06:11:37;;;;;;;;;52.50;41.50;;;;;9.25;69.97;101134.94;5019432;28;45459;-85
2022/03/05 06:14:02;;;;;;;;;58.75;44.75;;;;;10.08;70.09;101282.22;5036757;28;46335;-83
2022/03/05 06:16:28;;;;;;;;;52.75;42.50;;;;;9.77;70.42;101224.81;5031209;28;45914;-84
2022/03/05 06:18:53;;;;;;;;;55.25;44.50;;;;;9.82;70.07;101239.06;5036361;28;45534;-85
2022/03/05 06:21:19;;;;;;;;;54.25;43.50;;;;;10.07;69.97;101282.16;5036705;28;45543;-85
2022/03/05 06:23:44;;;;;;;;;53.67;41.67;;;;;9.73;70.10;101230.75;5035854;28;45427;-86
2022/03/05 06:26:10;;;;;;;;;57.50;45.00;;;;;10.06;70.34;101286.53;5036232;28;45452;-83
2022/03/05 06:28:35;;;;;;;;;53.50;44.50;;;;;9.54;70.02;101194.88;5018874;28;45506;-82
2022/03/05 06:31:02;;;;;;;;;53.00;42.75;;;;;10.06;70.12;101294.41;5030580;28;45415;-82
2022/03/05 06:33:28;;;;;;;;;58.25;45.75;;;;;9.39;70.19;101173.19;5024435;28;45807;-86
2022/03/05 06:35:53;;;;;;;;;50.00;42.00;;;;;9.25;70.01;101148.06;5023677;28;45609;-85
2022/03/05 06:38:19;;;;;;;;;52.00;41.50;;;;;8.99;70.59;101118.91;5026974;28;45355;-86
2022/03/05 06:40:44;;;;;;;;;56.50;44.75;;;;;9.49;70.33;101201.66;5036539;28;45356;-87
2022/03/05 06:43:10;;;;;;;;;58.25;45.25;;;;;9.08;70.02;101113.19;5036184;28;46060;-87
2022/03/05 06:45:36;;;;;;;;;55.25;44.50;;;;;10.08;70.19;101298.00;5038874;28;45601;-87
2022/03/05 06:48:01;;;;;;;;;56.75;44.75;;;;;9.89;70.06;101252.44;5010945;28;45337;-87
2022/03/05 06:50:26;;;;;;;;;60.50;48.50;;;;;9.36;70.33;101166.91;5033461;28;45594;-86
2022/03/05 06:52:52;;;;;;;;;56.67;44.67;;;;;10.16;70.39;101293.09;5018426;28;48121;-85
2022/03/05 06:55:17;;;;;;;;;56.33;45.33;;;;;10.18;69.94;101306.28;5017870;28;45811;-85
2022/03/05 06:57:44;;;;;;;;;56.75;45.50;;;;;9.40;70.02;101169.75;5036323;28;45527;-85
2022/03/05 07:00:13;;;;;;;;;65.75;52.50;;;;;9.04;70.01;101112.16;5030632;28;45460;-86
2022/03/05 07:02:38;;;;;;;;;58.00;47.50;;;;;9.19;69.94;101125.06;5022198;28;45749;-87
2022/03/05 07:05:04;;;;;;;;;61.25;48.00;;;;;9.30;69.60;101142.19;5018071;28;45942;-88
2022/03/05 07:07:33;;;;;;;;;59.50;49.00;;;;;9.26;69.73;101156.03;5036984;28;45517;-87
2022/03/05 07:09:58;;;;;;;;;57.75;46.00;;;;;8.91;69.81;101093.16;5032238;28;45493;-88
2022/03/05 07:12:25;;;;;;;;;58.75;47.00;;;;;9.99;69.46;101270.41;5023256;28;45506;-87
2022/03/05 07:14:50;;;;;;;;;59.75;49.00;;;;;10.28;69.60;101312.06;5016863;28;45785;-86
2022/03/05 07:17:16;;;;;;;;;59.75;45.75;;;;;9.89;69.26;101245.47;5018175;28;45907;-87
2022/03/05 07:19:41;;;;;;;;;59.75;48.25;;;;;10.16;69.21;101290.47;5046519;28;45429;-87
2022/03/05 07:22:07;;;;;;;;;61.50;46.00;;;;;9.39;69.01;101144.34;5035095;28;46580;-82
2022/03/05 07:24:33;;;;;;;;;64.50;51.00;;;;;10.25;68.98;101300.53;5052957;28;45104;-87
2022/03/05 07:26:58;;;;;;;;;60.75;47.50;;;;;9.91;68.60;101246.44;5026246;28;45911;-87
2022/03/05 07:29:23;;;;;;;;;57.25;46.75;;;;;10.24;68.41;101310.09;5032459;28;46567;-87
2022/03/05 07:31:49;;;;;;;;;59.50;44.75;;;;;10.06;68.15;101285.63;5023954;28;46256;-87
2022/03/05 07:34:14;;;;;;;;;62.00;49.00;;;;;10.29;68.09;101329.59;5031241;28;45293;-86
2022/03/05 07:36:40;;;;;;;;;54.67;45.33;;;;;9.86;67.58;101244.44;5033630;28;45437;-87
2022/03/05 07:39:07;;;;;;;;;63.25;47.75;;;;;9.83;67.36;101245.19;5017483;28;45944;-85
2022/03/05 07:41:33;;;;;;;;;64.00;50.00;;;;;9.95;67.30;101274.66;5014222;28;46477;-86
2022/03/05 07:43:58;;;;;;;;;61.25;48.25;;;;;10.24;67.39;101320.63;5015272;28;45395;-83
2022/03/05 07:46:23;;;;;;;;;59.33;48.00;;;;;9.96;67.30;101265.94;5015982;28;45572;-84
2022/03/05 07:48:49;;;;;;;;;58.33;43.33;;;;;10.45;67.08;101343.47;5016361;28;45680;-87
2022/03/05 07:51:14;;;;;;;;;54.00;45.00;;;;;9.29;66.49;101143.03;5015606;28;45637;-89
2022/03/05 07:53:39;;;;;;;;;63.25;49.50;;;;;10.16;66.60;101295.72;5022026;28;45690;-83
2022/03/05 07:56:05;;;;;;;;;64.00;49.00;;;;;10.49;66.51;101354.19;5028623;28;45664;-85
2022/03/05 07:58:30;;;;;;;;;58.75;46.50;;;;;10.21;66.22;101302.06;5025062;28;45653;-81
2022/03/05 08:00:58;;;;;;;;;57.67;47.00;;;;;9.86;66.08;101236.56;5023367;28;48325;-83
2022/03/05 08:03:23;;;;;;;;;62.25;49.25;;;;;10.20;66.26;101291.50;5027657;28;45511;-85
2022/03/05 08:05:48;;;;;;;;;61.00;48.33;;;;;9.90;66.02;101244.66;5014888;28;45449;-87
2022/03/05 08:08:14;;;;;;;;;60.00;47.00;;;;;10.18;66.05;101285.28;4999021;28;45549;-90
2022/03/05 08:10:39;;;;;;;;;58.33;47.00;;;;;10.31;65.66;101298.16;5016980;28;46781;-89
2022/03/05 08:13:04;;;;;;;;;60.00;46.00;;;;;10.57;65.16;101339.63;5015124;28;45477;-81
2022/03/05 08:15:30;;;;;;;;;59.75;46.75;;;;;10.35;64.77;101293.97;5012997;28;45362;-82
2022/03/05 08:17:57;;;;;;;;;59.67;47.33;;;;;10.79;64.83;101356.34;5012486;28;45465;-81
2022/03/05 08:20:25;;;;;;;;;63.00;48.25;;;;;10.51;64.77;101307.81;5012489;28;45523;-81
2022/03/05 08:22:50;;;;;;;;;57.50;48.00;;;;;10.65;64.47;101329.47;5013214;28;45803;-81
2022/03/05 08:25:16;;;;;;;;;55.50;45.00;;;;;10.92;64.31;101368.28;5014381;28;46017;-83
2022/03/05 08:27:42;;;;;;;;;56.75;46.25;;;;;10.90;63.72;101359.44;5015107;28;45559;-88
2022/03/05 08:30:08;;;;;;;;;57.25;46.00;;;;;11.00;64.27;101369.53;5015297;28;46600;-90
2022/03/05 08:32:34;;;;;;;;;57.50;46.75;;;;;11.05;63.15;101360.09;4997332;28;45818;-86
2022/03/05 08:35:00;;;;;;;;;57.75;46.50;;;;;10.92;63.59;101328.84;5014864;28;45334;-88
2022/03/05 08:37:25;;;;;;;;;53.00;42.00;;;;;11.15;63.12;101370.16;5016658;28;45522;-85
2022/03/05 08:39:50;;;;;;;;;59.75;45.25;;;;;10.65;62.98;101287.41;5014220;28;45812;-88
2022/03/05 08:42:16;;;;;;;;;57.00;46.00;;;;;10.98;62.62;101322.09;5014483;28;45318;-87
2022/03/05 08:44:41;;;;;;;;;57.67;45.67;;;;;11.32;62.82;101378.75;4997331;28;45471;-88
2022/03/05 08:47:07;;;;;;;;;60.75;48.25;;;;;11.11;62.27;101319.16;5014814;28;45530;-87
2022/03/05 08:49:32;;;;;;;;;59.75;46.00;;;;;10.88;62.17;101266.41;5014634;28;45369;-82
2022/03/05 08:51:58;;;;;;;;;59.00;47.50;;;;;11.04;61.94;101285.56;5014412;28;45646;-82
2022/03/05 08:54:25;;;;;;;;;59.75;48.50;;;;;11.55;61.87;101369.19;4996297;28;45403;-88
2022/03/05 08:56:51;;;;;;;;;61.00;46.50;;;;;11.49;61.70;101354.03;4996678;28;45588;-89
2022/03/05 08:59:16;;;;;;;;;60.25;48.25;;;;;10.76;61.60;101215.13;5014653;28;46499;-88
2022/03/05 09:01:41;;;;;;;;;59.50;46.00;;;;;11.36;61.40;101305.25;5014521;28;45375;-83
2022/03/05 09:04:07;;;;;;;;;63.00;47.50;;;;;11.53;61.98;101316.47;5013824;28;45442;-85
2022/03/05 09:06:32;;;;;;;;;57.75;46.00;;;;;11.92;61.83;101370.66;5013585;28;45301;-82
2022/03/05 09:08:59;;;;;;;;;57.50;45.25;;;;;11.66;61.77;101293.25;5013259;28;45905;-82
2022/03/05 09:11:25;;;;;;;;;56.50;45.50;;;;;11.80;61.33;101308.75;4995794;28;45841;-83
2022/03/05 09:13:51;;;;;;;;;58.25;47.75;;;;;12.17;61.58;101361.97;5013802;28;45346;-82
2022/03/05 09:16:16;;;;;;;;;65.75;49.25;;;;;11.72;61.33;101261.88;5013399;28;45417;-86
2022/03/05 09:18:41;;;;;;;;;58.00;48.33;;;;;12.17;61.17;101338.25;5014152;28;46411;-83
2022/03/05 09:21:07;;;;;;;;;59.50;49.00;;;;;12.00;61.55;101300.75;5013534;28;45425;-83
2022/03/05 09:23:33;;;;;;;;;62.25;48.75;;;;;12.10;61.31;101306.41;5013202;28;45627;-89
2022/03/05 09:25:59;;;;;;;;;59.00;46.25;;;;;12.48;61.50;101354.38;5014594;28;45361;-89
2022/03/05 09:28:24;;;;;;;;;57.25;45.25;;;;;12.52;61.21;101355.41;4996463;28;48367;-86
2022/03/05 09:30:50;;;;;;;;;58.75;46.50;;;;;12.54;61.00;101344.03;4996224;28;45537;-87
2022/03/05 09:33:15;;;;;;;;;60.50;47.75;;;;;12.17;61.23;101268.03;4996720;28;45474;-82
2022/03/05 09:35:41;;;;;;;;;59.75;46.50;;;;;12.44;61.19;101304.13;5013804;28;45597;-87
2022/03/05 09:38:06;;;;;;;;;63.25;48.75;;;;;12.64;60.86;101332.97;5013288;28;45503;-88
2022/03/05 09:40:32;;;;;;;;;58.75;47.00;;;;;12.76;60.22;101360.63;5013980;28;45412;-84
2022/03/05 09:43:01;;;;;;;;;71.25;56.25;;;;;12.72;60.08;101361.38;5013860;28;45480;-89
2022/03/05 09:45:26;;;;;;;;;62.75;49.00;;;;;12.53;60.49;101328.19;5013625;28;45532;-89
2022/03/05 09:47:52;;;;;;;;;63.25;51.25;;;;;12.31;60.29;101284.31;5013742;28;47712;-87
2022/03/05 09:50:17;;;;;;;;;64.50;50.50;;;;;12.85;60.71;101366.22;5013638;28;45811;-87
2022/03/05 09:52:43;;;;;;;;;56.75;45.50;;;;;12.94;60.62;101357.75;5014405;28;45564;-83
2022/03/05 09:55:09;;;;;;;;;62.75;47.00;;;;;12.52;60.31;101261.38;5013116;28;45326;-85
2022/03/05 09:57:37;;;;;;;;;57.00;47.00;;;;;13.15;60.04;101345.28;5013395;28;45576;-86
2022/03/05 10:00:04;;;;;;;;;62.50;48.25;;;;;13.37;60.18;101344.31;4995849;28;45805;-90
2022/03/05 10:02:30;;;;;;;;;60.25;47.50;;;;;13.15;60.19;101287.22;5013531;28;45274;-87
2022/03/05 10:05:26;;;;;;;;;60.50;49.00;;;;;13.60;59.32;101345.06;5013722;28;45420;-89
2022/03/05 10:08:10;;;;;;;;;60.00;48.00;;;;;13.22;58.52;101283.97;5013407;28;46528;-89
2022/03/05 10:10:56;;;;;;;;;62.00;47.50;;;;;13.55;58.18;101351.94;5013485;28;45302;-87
2022/03/05 10:13:26;;;;;;;;;61.50;48.25;;;;;13.50;58.08;101342.97;5013675;28;45429;-86
2022/03/05 10:15:54;;;;;;;;;60.25;48.50;;;;;13.18;57.83;101311.09;5013469;28;45350;-87
2022/03/05 10:18:34;;;;;;;;;55.00;45.25;;;;;13.32;57.42;101344.16;4995444;28;46146;-88
2022/03/05 10:21:01;;;;;;;;;55.00;44.00;;;;;13.17;56.99;101343.59;5013209;28;45416;-85
2022/03/05 10:23:30;;;;;;;;;57.25;46.00;;;;;12.58;57.47;101263.31;5012838;28;45385;-89
2022/03/05 10:25:56;;;;;;;;;57.50;47.00;;;;;12.87;57.28;101333.81;5013196;28;45630;-87
2022/03/05 10:28:21;;;;;;;;;57.25;46.25;;;;;12.78;57.26;101349.31;4995330;28;48164;-83
2022/03/05 10:30:51;;;;;;;;;55.33;46.33;;;;;12.69;57.01;101343.69;5013341;28;45342;-88
2022/03/05 10:33:23;;;;;;;;;77.75;60.50;;;;;12.65;56.60;101347.06;5012927;28;45374;-87
2022/03/05 10:35:49;;;;;;;;;57.25;47.75;;;;;12.20;56.97;101273.38;5016739;28;45476;-87
2022/03/05 10:38:14;;;;;;;;;54.50;44.50;;;;;12.40;56.08;101298.72;5015675;28;45582;-86
2022/03/05 10:40:40;;;;;;;;;55.75;43.00;;;;;12.27;55.25;101274.53;5016763;28;45488;-88
2022/03/05 10:43:08;;;;;;;;;60.00;46.75;;;;;12.32;54.75;101276.50;5017053;28;45549;-85
2022/03/05 10:45:53;;;;;;;;;57.25;45.75;;;;;12.76;55.12;101350.06;4999272;28;45757;-83
2022/03/05 10:48:30;;;;;;;;;46.75;39.50;;;;;12.35;54.55;101268.66;5016514;28;45431;-88
2022/03/05 10:51:01;;;;;;;;;54.50;42.75;;;;;12.81;53.78;101345.91;5016338;28;45826;-89
2022/03/05 10:53:38;;;;;;;;;51.00;40.75;;;;;12.83;52.31;101345.09;5016243;28;45385;-89
2022/03/05 10:56:30;;;;;;;;;43.50;37.75;;;;;12.87;52.67;101346.09;5016460;28;45487;-85
2022/03/05 10:58:57;;;;;;;;;49.25;41.00;;;;;12.57;52.10;101309.00;5016262;28;46464;-89
2022/03/05 11:01:23;;;;;;;;;47.75;37.50;;;;;12.77;51.17;101302.69;4999045;28;45609;-90
2022/03/05 11:03:51;;;;;;;;;52.50;43.00;;;;;13.01;51.39;101323.72;5016948;28;45317;-85
2022/03/05 11:06:18;;;;;;;;;46.25;37.25;;;;;13.13;50.97;101320.59;5016774;28;45465;-88
2022/03/05 11:08:44;;;;;;;;;49.75;41.50;;;;;13.00;51.46;101278.78;5016105;28;46377;-89
2022/03/05 11:11:09;;;;;;;;;57.00;46.25;;;;;13.28;50.69;101286.81;5016337;28;45392;-88